Time;durP1;ratioP1;P1;durP2;ratioP2;P2;SDS_P1;SDS_P2;PMS_P1;PMS_P2;Temp;Humidity;BMP_temperature;BMP_pressure;BME280_temperature;BME280_humidity;BME280_pressure;Samples;Min_cycle;Max_cycle;Signal;HPM_P1;HPM_P2
2022/09/20 00:02:17;;;;;;;;;;;10.40;99.90;;;;;;5074181;28;19928;-80
2022/09/20 00:04:44;;;;;;;;;;;10.40;99.90;;;;;;5093318;28;19970;-80
2022/09/20 00:07:11;;;;;;;;;;;10.50;99.90;;;;;;5075306;28;19928;-80
2022/09/20 00:09:39;;;;;;;;;;;10.70;99.90;;;;;;5074331;28;19940;-80
2022/09/20 00:12:07;;;;;;;;;;;10.70;99.90;;;;;;5062471;28;19990;-80
2022/09/20 00:14:34;;;;;;;;;;;10.80;99.90;;;;;;5062341;28;19928;-80
2022/09/20 00:17:01;;;;;;;;;;;10.80;99.90;;;;;;5091961;28;19925;-80
2022/09/20 00:19:29;;;;;;;;;;;10.90;99.90;;;;;;5073822;28;20018;-80
2022/09/20 00:21:56;;;;;;;;;;;10.90;99.90;;;;;;5088663;28;19931;-80
2022/09/20 00:24:23;;;;;;;;;;;10.90;99.90;;;;;;5059739;28;19951;-81
2022/09/20 00:26:50;;;;;;;;;;;11.00;99.90;;;;;;5062074;28;19972;-81
2022/09/20 00:29:17;;;;;;;;;;;11.10;99.90;;;;;;5067615;28;19930;-81
2022/09/20 00:31:44;;;;;;;;;;;11.10;99.90;;;;;;5068889;28;19934;-81
2022/09/20 00:36:57;;;;;;;;;;;11.20;99.90;;;;;;5073359;28;20302;-80
2022/09/20 00:39:24;;;;;;;;;;;11.20;99.90;;;;;;5073643;28;19973;-81
2022/09/20 00:41:51;;;;;;;;;;;11.30;99.90;;;;;;5073861;28;19978;-80
2022/09/20 00:44:40;;;;;;;;;;;11.30;99.90;;;;;;5072541;28;19982;-81
2022/09/20 00:47:12;;;;;;;;;;;11.30;99.90;;;;;;5073430;28;19935;-80
2022/09/20 00:49:39;;;;;;;;;;;11.30;99.90;;;;;;5073734;28;19924;-81
2022/09/20 00:52:08;;;;;;;;;;;11.40;99.90;;;;;;5074163;28;19981;-80
2022/09/20 00:54:35;;;;;;;;;;;11.40;99.90;;;;;;5074620;28;19932;-80
2022/09/20 00:57:02;;;;;;;;;;;11.40;99.90;;;;;;5074533;28;19954;-80
2022/09/20 00:59:30;;;;;;;;;;;11.40;99.90;;;;;;5074659;28;20034;-80
2022/09/20 01:01:58;;;;;;;;;;;11.40;99.90;;;;;;5074987;28;19948;-80
2022/09/20 01:04:27;;;;;;;;;;;11.40;99.90;;;;;;5074298;28;20456;-79
2022/09/20 01:06:54;;;;;;;;;;;11.40;99.90;;;;;;5073531;28;20279;-80
2022/09/20 01:09:22;;;;;;;;;;;11.40;99.90;;;;;;5074065;28;19973;-80
2022/09/20 01:11:50;;;;;;;;;;;11.40;99.90;;;;;;5073759;28;19924;-80
2022/09/20 01:14:17;;;;;;;;;;;11.40;99.90;;;;;;5073831;28;20745;-80
2022/09/20 01:16:45;;;;;;;;;;;11.40;99.90;;;;;;5072978;28;20031;-81
2022/09/20 01:19:20;;;;;;;;;;;11.40;99.90;;;;;;5073216;28;20288;-81
2022/09/20 01:21:48;;;;;;;;;;;11.30;99.90;;;;;;5089034;28;20560;-78
2022/09/20 01:24:20;;;;;;;;;;;11.30;99.90;;;;;;5083094;28;20220;-79
2022/09/20 01:26:57;;;;;;;;;;;11.30;99.90;;;;;;5062365;28;19954;-78
2022/09/20 01:29:41;;;;;;;;;;;11.30;99.90;;;;;;5058731;28;19929;-78
2022/09/20 01:32:10;;;;;;;;;;;11.20;99.90;;;;;;5052391;28;19928;-78
2022/09/20 01:34:41;;;;;;;;;;;11.10;99.90;;;;;;5083737;28;19955;-78
2022/09/20 01:37:14;;;;;;;;;;;11.10;99.90;;;;;;5071858;28;19939;-78
2022/09/20 01:39:48;;;;;;;;;;;10.90;99.90;;;;;;5070108;28;20023;-78
2022/09/20 01:42:16;;;;;;;;;;;10.80;99.90;;;;;;5066681;28;19935;-78
2022/09/20 01:44:48;;;;;;;;;;;10.70;99.90;;;;;;5073282;28;20643;-79
2022/09/20 01:47:18;;;;;;;;;;;10.50;99.90;;;;;;5074072;28;20299;-78
2022/09/20 01:49:51;;;;;;;;;;;10.50;99.90;;;;;;5091124;28;19928;-80
2022/09/20 01:52:32;;;;;;;;;;;10.50;99.90;;;;;;5094100;28;20017;-83
2022/09/20 01:55:10;;;;;;;;;;;10.50;99.90;;;;;;5060218;28;19939;-83
2022/09/20 01:57:55;;;;;;;;;;;10.40;99.90;;;;;;5077842;28;19928;-84
2022/09/20 02:00:26;;;;;;;;;;;10.30;99.90;;;;;;5058315;28;19928;-84
2022/09/20 02:03:08;;;;;;;;;;;10.30;99.90;;;;;;5056764;28;20000;-83
2022/09/20 02:05:43;;;;;;;;;;;10.30;99.90;;;;;;5066858;28;19935;-82
2022/09/20 02:08:29;;;;;;;;;;;10.30;99.90;;;;;;5079110;28;20355;-83
2022/09/20 02:11:09;;;;;;;;;;;10.30;99.90;;;;;;5067559;28;20299;-83
2022/09/20 02:13:45;;;;;;;;;;;10.20;99.90;;;;;;5056496;28;19935;-82
2022/09/20 02:16:39;;;;;;;;;;;10.20;99.90;;;;;;5057351;28;19986;-83
2022/09/20 02:19:14;;;;;;;;;;;10.30;99.90;;;;;;5017620;28;20366;-83
2022/09/20 02:21:44;;;;;;;;;;;10.30;99.90;;;;;;5072843;28;19928;-80
2022/09/20 02:24:16;;;;;;;;;;;10.30;99.90;;;;;;5068295;28;19935;-80
2022/09/20 02:26:49;;;;;;;;;;;10.30;99.90;;;;;;5075985;28;19932;-82
2022/09/20 02:29:22;;;;;;;;;;;10.40;99.90;;;;;;5089097;28;19934;-80
2022/09/20 02:32:00;;;;;;;;;;;10.40;99.90;;;;;;5095156;28;20380;-82
2022/09/20 02:34:39;;;;;;;;;;;10.40;99.90;;;;;;5077018;28;19924;-82
2022/09/20 02:37:15;;;;;;;;;;;10.50;99.90;;;;;;5076212;28;19996;-82
2022/09/20 02:39:45;;;;;;;;;;;10.50;99.90;;;;;;5077302;28;19924;-82
2022/09/20 02:42:14;;;;;;;;;;;10.60;99.90;;;;;;5076172;28;19945;-83
2022/09/20 02:44:49;;;;;;;;;;;10.60;99.90;;;;;;5075355;28;19937;-83
2022/09/20 02:47:21;;;;;;;;;;;10.70;99.90;;;;;;5071510;28;19973;-83
2022/09/20 02:49:56;;;;;;;;;;;10.70;99.90;;;;;;5066075;28;20034;-81
2022/09/20 02:52:28;;;;;;;;;;;10.70;99.90;;;;;;5059865;28;19933;-82
2022/09/20 02:54:59;;;;;;;;;;;10.70;99.90;;;;;;5074103;28;19932;-82
2022/09/20 02:57:32;;;;;;;;;;;10.70;99.90;;;;;;5068193;28;20034;-81
2022/09/20 03:00:01;;;;;;;;;;;10.70;99.90;;;;;;5057113;28;19924;-82
2022/09/20 03:02:31;;;;;;;;;;;10.70;99.90;;;;;;5055742;28;20340;-78
2022/09/20 03:05:06;;;;;;;;;;;10.70;99.90;;;;;;5052547;28;19928;-78
2022/09/20 03:07:37;;;;;;;;;;;10.70;99.90;;;;;;5052699;28;19928;-78
2022/09/20 03:10:11;;;;;;;;;;;10.80;99.90;;;;;;5053104;28;19976;-78
2022/09/20 03:12:43;;;;;;;;;;;10.80;99.90;;;;;;5052892;28;19990;-78
2022/09/20 03:15:16;;;;;;;;;;;10.80;99.90;;;;;;5081684;28;19929;-78
2022/09/20 03:17:47;;;;;;;;;;;10.80;99.90;;;;;;5063165;28;19993;-80
2022/09/20 03:20:21;;;;;;;;;;;10.90;99.90;;;;;;5062500;28;19978;-79
2022/09/20 03:22:53;;;;;;;;;;;10.80;99.90;;;;;;5068524;28;20367;-80
2022/09/20 03:25:44;;;;;;;;;;;10.80;99.90;;;;;;5060444;28;19950;-80
2022/09/20 03:28:20;;;;;;;;;;;10.90;99.90;;;;;;5053985;28;19931;-79
2022/09/20 03:30:55;;;;;;;;;;;10.90;99.90;;;;;;5067167;28;19932;-81
2022/09/20 03:33:25;;;;;;;;;;;10.90;99.90;;;;;;5078196;28;20018;-81
2022/09/20 03:36:02;;;;;;;;;;;10.90;99.90;;;;;;5074420;28;19932;-79
2022/09/20 03:38:36;;;;;;;;;;;11.00;99.90;;;;;;5093499;28;19928;-80
2022/09/20 03:41:24;;;;;;;;;;;11.00;99.90;;;;;;5069734;28;19932;-79
2022/09/20 03:44:00;;;;;;;;;;;11.00;99.90;;;;;;5067615;28;19928;-79
2022/09/20 03:46:27;;;;;;;;;;;11.00;99.90;;;;;;5081083;28;19950;-79
2022/09/20 03:49:12;;;;;;;;;;;11.00;99.90;;;;;;5078072;28;19950;-78
2022/09/20 03:51:45;;;;;;;;;;;11.00;99.90;;;;;;5081861;28;19928;-78
2022/09/20 03:54:30;;;;;;;;;;;11.00;99.90;;;;;;5068213;28;19931;-78
2022/09/20 03:57:16;;;;;;;;;;;11.00;99.90;;;;;;5063245;28;19939;-78
2022/09/20 03:59:53;;;;;;;;;;;11.00;99.90;;;;;;5056108;28;20011;-78
2022/09/20 04:02:37;;;;;;;;;;;11.00;99.90;;;;;;5074117;28;19967;-78
2022/09/20 04:05:07;;;;;;;;;;;11.00;99.90;;;;;;5050786;28;20042;-79
2022/09/20 04:07:43;;;;;;;;;;;11.00;99.90;;;;;;5057518;28;20019;-79
2022/09/20 04:10:27;;;;;;;;;;;11.10;99.90;;;;;;5074923;28;19967;-78
2022/09/20 04:13:00;;;;;;;;;;;12.10;99.90;;;;;;5067356;28;20005;-78
2022/09/20 04:15:34;;;;;;;;;;;11.10;99.90;;;;;;5068760;28;19929;-78
2022/09/20 04:18:03;;;;;;;;;;;11.10;99.90;;;;;;5069827;28;19928;-78
2022/09/20 04:20:33;;;;;;;;;;;11.10;99.90;;;;;;5073604;28;19935;-79
2022/09/20 04:23:05;;;;;;;;;;;11.10;99.90;;;;;;5074562;28;20137;-79
2022/09/20 04:25:35;;;;;;;;;;;11.10;99.90;;;;;;5073990;28;19924;-78
2022/09/20 04:28:05;;;;;;;;;;;11.10;99.90;;;;;;5071171;28;19929;-78
2022/09/20 04:30:36;;;;;;;;;;;11.10;99.90;;;;;;5056316;28;19944;-80
2022/09/20 04:33:04;;;;;;;;;;;11.10;99.90;;;;;;5076312;28;20040;-80
2022/09/20 04:38:22;;;;;;;;;;;11.10;99.90;;;;;;5080163;28;19924;-79
2022/09/20 04:40:58;;;;;;;;;;;11.10;99.90;;;;;;5076873;28;19952;-83
2022/09/20 04:43:52;;;;;;;;;;;11.20;99.90;;;;;;5068993;28;19933;-83
2022/09/20 04:46:46;;;;;;;;;;;11.20;99.90;;;;;;5082971;28;19946;-85
2022/09/20 04:49:32;;;;;;;;;;;11.20;99.90;;;;;;5099587;28;20029;-82
2022/09/20 04:52:24;;;;;;;;;;;11.20;99.90;;;;;;5085717;28;19929;-80
2022/09/20 04:55:18;;;;;;;;;;;11.20;99.90;;;;;;5084295;28;19925;-80
2022/09/20 04:58:03;;;;;;;;;;;11.20;99.90;;;;;;5081991;28;19932;-81
2022/09/20 05:00:37;;;;;;;;;;;11.30;99.90;;;;;;5067583;28;20039;-83
2022/09/20 05:03:25;;;;;;;;;;;11.20;99.90;;;;;;5062706;28;19974;-85
2022/09/20 05:06:14;;;;;;;;;;;11.30;99.90;;;;;;5072452;28;20340;-81
2022/09/20 05:08:52;;;;;;;;;;;11.40;99.90;;;;;;5063296;28;19947;-82
2022/09/20 05:11:29;;;;;;;;;;;11.40;99.90;;;;;;5079238;28;19928;-83
2022/09/20 05:14:05;;;;;;;;;;;11.40;99.90;;;;;;5063952;28;19978;-82
2022/09/20 05:16:42;;;;;;;;;;;11.50;99.90;;;;;;5045998;28;19956;-81
2022/09/20 05:19:14;;;;;;;;;;;11.50;99.90;;;;;;5082980;28;19979;-82
2022/09/20 05:22:08;;;;;;;;;;;11.50;99.90;;;;;;5067155;28;19928;-82
2022/09/20 05:24:52;;;;;;;;;;;11.50;99.90;;;;;;5049518;28;19999;-85
2022/09/20 05:27:34;;;;;;;;;;;11.60;99.90;;;;;;5098100;28;19928;-82
2022/09/20 05:30:06;;;;;;;;;;;11.60;99.90;;;;;;5083381;28;19963;-84
2022/09/20 05:32:40;;;;;;;;;;;11.60;99.90;;;;;;5073062;28;19932;-83
2022/09/20 05:35:14;;;;;;;;;;;11.60;99.90;;;;;;5090654;28;20406;-83
2022/09/20 05:37:44;;;;;;;;;;;11.70;99.90;;;;;;5099130;28;20348;-84
2022/09/20 05:40:18;;;;;;;;;;;11.70;99.90;;;;;;5081082;28;20008;-82
2022/09/20 05:42:52;;;;;;;;;;;11.70;99.90;;;;;;5099758;28;20653;-83
2022/09/20 05:45:33;;;;;;;;;;;11.80;99.90;;;;;;5080804;28;20019;-83
2022/09/20 05:48:05;;;;;;;;;;;11.80;99.90;;;;;;5098674;28;20291;-82
2022/09/20 05:50:40;;;;;;;;;;;11.80;99.90;;;;;;5099463;28;19928;-83
2022/09/20 05:53:15;;;;;;;;;;;11.90;99.90;;;;;;5098430;28;19928;-83
2022/09/20 05:55:51;;;;;;;;;;;11.90;99.90;;;;;;5081058;28;20288;-83
2022/09/20 05:58:35;;;;;;;;;;;12.00;99.90;;;;;;5061464;28;20096;-83
2022/09/20 06:01:04;;;;;;;;;;;12.00;99.90;;;;;;5093129;28;20302;-83
2022/09/20 06:03:36;;;;;;;;;;;12.10;99.90;;;;;;5098378;28;19932;-81
2022/09/20 06:06:07;;;;;;;;;;;10.40;99.90;;;;;;5080095;28;19935;-81
2022/09/20 06:08:48;;;;;;;;;;;12.20;99.90;;;;;;5080021;28;19946;-82
2022/09/20 06:11:31;;;;;;;;;;;12.30;99.90;;;;;;5081279;28;19967;-77
2022/09/20 06:14:04;;;;;;;;;;;12.40;99.90;;;;;;5078285;28;19927;-79
2022/09/20 06:16:41;;;;;;;;;;;12.50;99.90;;;;;;5089594;28;20485;-80
2022/09/20 06:19:14;;;;;;;;;;;12.50;99.90;;;;;;5079092;28;20362;-80
2022/09/20 06:21:45;;;;;;;;;;;12.60;99.90;;;;;;5078387;28;19924;-80
2022/09/20 06:24:17;;;;;;;;;;;12.70;99.90;;;;;;5059349;28;20403;-80
2022/09/20 06:26:44;;;;;;;;;;;12.80;99.90;;;;;;5069476;28;19928;-80
2022/09/20 06:29:13;;;;;;;;;;;12.80;99.90;;;;;;5065457;28;20505;-80
2022/09/20 06:31:43;;;;;;;;;;;12.90;99.90;;;;;;5070956;28;19986;-80
2022/09/20 06:34:13;;;;;;;;;;;12.90;99.90;;;;;;5073019;28;19932;-80
2022/09/20 06:42:14;;;;;;;;;;;13.40;99.90;;;;;;5078757;28;19939;-78
2022/09/20 06:44:43;;;;;;;;;;;13.50;99.90;;;;;;5078894;28;19931;-79
2022/09/20 06:47:10;;;;;;;;;;;13.70;99.90;;;;;;5080034;28;20358;-79
2022/09/20 06:49:38;;;;;;;;;;;13.70;99.90;;;;;;5068577;28;19938;-79
2022/09/20 06:52:05;;;;;;;;;;;13.80;99.90;;;;;;5060784;28;20384;-79
2022/09/20 06:54:32;;;;;;;;;;;14.00;99.90;;;;;;5058299;28;19925;-79
2022/09/20 06:57:01;;;;;;;;;;;14.50;99.90;;;;;;5067998;28;19974;-79
2022/09/20 06:59:28;;;;;;;;;;;15.30;99.90;;;;;;5066391;28;19928;-81
2022/09/20 07:01:56;;;;;;;;;;;15.70;99.90;;;;;;5070026;28;19928;-79
2022/09/20 07:04:25;;;;;;;;;;;15.80;99.90;;;;;;5070903;28;19934;-79
2022/09/20 07:06:53;;;;;;;;;;;15.90;99.90;;;;;;5077438;28;19928;-79
2022/09/20 07:09:20;;;;;;;;;;;16.00;99.90;;;;;;5078289;28;20031;-80
2022/09/20 07:11:46;;;;;;;;;;;16.10;99.90;;;;;;5095371;28;19932;-80
2022/09/20 07:14:14;;;;;;;;;;;16.30;99.90;;;;;;5077629;28;19932;-80
2022/09/20 07:16:41;;;;;;;;;;;16.80;99.90;;;;;;5077213;28;19928;-80
2022/09/20 07:19:12;;;;;;;;;;;17.10;99.90;;;;;;5077237;28;20387;-81
2022/09/20 07:21:39;;;;;;;;;;;17.00;99.90;;;;;;5068611;28;19963;-80
2022/09/20 07:24:06;;;;;;;;;;;16.80;99.90;;;;;;5064419;28;20001;-80
2022/09/20 07:26:33;;;;;;;;;;;16.70;99.90;;;;;;5081637;28;19925;-81
2022/09/20 07:29:00;;;;;;;;;;;16.50;99.90;;;;;;5069622;28;19924;-80
2022/09/20 07:31:28;;;;;;;;;;;16.50;99.90;;;;;;5077941;28;19928;-80
2022/09/20 07:33:55;;;;;;;;;;;16.70;99.90;;;;;;5077180;28;19928;-81
2022/09/20 07:36:23;;;;;;;;;;;17.00;99.90;;;;;;5096571;28;19930;-81
2022/09/20 07:38:51;;;;;;;;;;;17.50;99.90;;;;;;5077485;28;19924;-80
2022/09/20 07:41:19;;;;;;;;;;;18.30;99.90;;;;;;5076398;28;19924;-80
2022/09/20 07:43:46;;;;;;;;;;;19.00;99.90;;;;;;5076370;28;19928;-81
2022/09/20 07:46:13;;;;;;;;;;;19.60;99.90;;;;;;5095562;28;20395;-81
2022/09/20 07:48:40;;;;;;;;;;;19.90;99.90;;;;;;5077189;28;19930;-80
2022/09/20 07:51:08;;;;;;;;;;;20.00;99.90;;;;;;5076878;28;19932;-81
2022/09/20 07:53:37;;;;;;;;;;;19.90;99.90;;;;;;5077994;28;19928;-81
2022/09/20 07:56:05;;;;;;;;;;;19.70;99.90;;;;;;5078207;28;20001;-81
2022/09/20 07:58:33;;;;;;;;;;;19.50;99.90;;;;;;5080273;28;19978;-81
2022/09/20 08:01:00;;;;;;;;;;;19.20;99.90;;;;;;5059188;28;19928;-80
2022/09/20 08:03:29;;;;;;;;;;;19.10;99.90;;;;;;5056927;28;19932;-80
2022/09/20 08:05:58;;;;;;;;;;;19.70;99.90;;;;;;5057957;28;19977;-81
2022/09/20 08:08:25;;;;;;;;;;;19.80;99.90;;;;;;5073905;28;19958;-81
2022/09/20 08:10:54;;;;;;;;;;;20.30;99.90;;;;;;5057525;28;19924;-82
2022/09/20 08:13:21;;;;;;;;;;;20.40;99.90;;;;;;5074509;28;19993;-81
2022/09/20 08:15:48;;;;;;;;;;;20.30;99.90;;;;;;5055815;28;20423;-81
2022/09/20 08:18:15;;;;;;;;;;;19.90;99.90;;;;;;5056707;28;20380;-81
2022/09/20 08:20:42;;;;;;;;;;;19.90;99.90;;;;;;5055936;28;19968;-81
2022/09/20 08:23:09;;;;;;;;;;;19.70;99.90;;;;;;5057463;28;19924;-81
2022/09/20 08:25:38;;;;;;;;;;;19.60;99.90;;;;;;5059770;28;19924;-81
2022/09/20 08:28:06;;;;;;;;;;;19.60;99.90;;;;;;5074371;28;20030;-79
2022/09/20 08:30:33;;;;;;;;;;;19.70;99.90;;;;;;5074787;28;19925;-79
2022/09/20 08:33:00;;;;;;;;;;;19.90;99.90;;;;;;5080874;28;19923;-79
2022/09/20 08:35:28;;;;;;;;;;;20.20;99.90;;;;;;5089916;28;19936;-79
2022/09/20 08:37:56;;;;;;;;;;;20.60;99.90;;;;;;5064979;28;20026;-80
2022/09/20 08:40:23;;;;;;;;;;;21.00;99.90;;;;;;5056033;28;20368;-80
2022/09/20 08:42:52;;;;;;;;;;;21.30;99.90;;;;;;5072887;28;19928;-79
2022/09/20 08:45:21;;;;;;;;;;;21.60;99.90;;;;;;5077388;28;19924;-80
2022/09/20 08:47:52;;;;;;;;;;;21.70;99.90;;;;;;5077103;28;19924;-79
2022/09/20 08:50:19;;;;;;;;;;;21.70;99.90;;;;;;5075852;28;19928;-79
2022/09/20 08:52:47;;;;;;;;;;;21.50;99.90;;;;;;5072476;28;19939;-80
2022/09/20 08:55:16;;;;;;;;;;;20.80;99.90;;;;;;5072534;28;19929;-80
2022/09/20 08:57:43;;;;;;;;;;;20.80;99.90;;;;;;5070170;28;19928;-81
2022/09/20 09:00:16;;;;;;;;;;;20.50;99.90;;;;;;5099275;28;19997;-81
2022/09/20 09:02:45;;;;;;;;;;;20.30;99.90;;;;;;5099405;28;19924;-81
2022/09/20 09:05:20;;;;;;;;;;;20.20;99.90;;;;;;5064931;28;20022;-80
2022/09/20 09:07:47;;;;;;;;;;;19.60;99.90;;;;;;5080515;28;19924;-81
2022/09/20 09:10:15;;;;;;;;;;;20.00;99.90;;;;;;5078683;28;19928;-80
2022/09/20 09:12:45;;;;;;;;;;;19.90;99.90;;;;;;5081472;28;19928;-80
2022/09/20 09:15:21;;;;;;;;;;;19.90;99.90;;;;;;5081386;28;19928;-80
2022/09/20 09:17:50;;;;;;;;;;;19.80;99.90;;;;;;5079779;28;20034;-81
2022/09/20 09:20:20;;;;;;;;;;;19.80;99.90;;;;;;5080170;28;19935;-81
2022/09/20 09:22:47;;;;;;;;;;;19.60;99.90;;;;;;5080121;28;19935;-81
2022/09/20 09:25:31;;;;;;;;;;;19.50;99.90;;;;;;5081070;28;19928;-81
2022/09/20 09:27:59;;;;;;;;;;;19.50;99.90;;;;;;5063100;28;19985;-81
2022/09/20 09:30:27;;;;;;;;;;;19.50;99.90;;;;;;5058761;28;19924;-81
2022/09/20 09:33:15;;;;;;;;;;;19.60;99.90;;;;;;5059154;28;19924;-81
2022/09/20 09:35:42;;;;;;;;;;;19.60;99.90;;;;;;5087192;28;19924;-81
2022/09/20 09:38:17;;;;;;;;;;;19.90;99.90;;;;;;5097893;28;19924;-81
2022/09/20 09:40:49;;;;;;;;;;;19.90;99.90;;;;;;5079723;28;20386;-81
2022/09/20 09:43:20;;;;;;;;;;;20.10;99.90;;;;;;5078380;28;19928;-81
2022/09/20 09:45:47;;;;;;;;;;;20.30;99.90;;;;;;5097365;28;19932;-82
2022/09/20 09:48:19;;;;;;;;;;;20.30;99.90;;;;;;5080077;28;19939;-81
2022/09/20 09:50:47;;;;;;;;;;;20.30;99.90;;;;;;5078995;28;20296;-81
2022/09/20 09:53:15;;;;;;;;;;;20.10;99.90;;;;;;5079860;28;20344;-81
2022/09/20 09:55:57;;;;;;;;;;;19.70;99.90;;;;;;5078847;28;19924;-81
2022/09/20 09:58:31;;;;;;;;;;;19.30;99.90;;;;;;5076363;28;20435;-81
2022/09/20 10:00:59;;;;;;;;;;;18.90;99.90;;;;;;5068609;28;19934;-81
2022/09/20 10:03:35;;;;;;;;;;;18.70;99.90;;;;;;5061795;28;19977;-81
2022/09/20 10:06:15;;;;;;;;;;;18.40;99.90;;;;;;5071118;28;20023;-80
2022/09/20 10:08:48;;;;;;;;;;;17.90;99.90;;;;;;5076767;28;19932;-79
2022/09/20 10:11:22;;;;;;;;;;;17.50;99.90;;;;;;5075684;28;19924;-78
2022/09/20 10:13:53;;;;;;;;;;;17.20;99.90;;;;;;5098858;28;19959;-79
2022/09/20 10:16:27;;;;;;;;;;;17.00;99.90;;;;;;5080712;28;19928;-80
2022/09/20 10:19:02;;;;;;;;;;;16.80;99.90;;;;;;5076883;28;20504;-81
2022/09/20 10:21:40;;;;;;;;;;;16.80;99.90;;;;;;5079253;28;19936;-80
2022/09/20 10:24:16;;;;;;;;;;;16.80;99.90;;;;;;5079612;28;19928;-81
2022/09/20 10:27:01;;;;;;;;;;;16.90;99.90;;;;;;5075001;28;19947;-81
2022/09/20 10:29:45;;;;;;;;;;;17.10;99.90;;;;;;5068300;28;19928;-81
2022/09/20 10:32:19;;;;;;;;;;;17.30;99.90;;;;;;5076466;28;19924;-81
2022/09/20 10:34:58;;;;;;;;;;;17.70;99.90;;;;;;5093236;28;20673;-81
2022/09/20 10:37:29;;;;;;;;;;;17.90;99.90;;;;;;5080048;28;19928;-83
2022/09/20 10:40:02;;;;;;;;;;;18.10;99.90;;;;;;5080640;28;20038;-82
2022/09/20 10:45:27;;;;;;;;;;;18.50;99.90;;;;;;5073268;28;19928;-82
2022/09/20 10:47:59;;;;;;;;;;;18.70;99.90;;;;;;5077096;28;20357;-82
2022/09/20 10:50:33;;;;;;;;;;;18.60;99.90;;;;;;5076559;28;19928;-81
2022/09/20 10:53:08;;;;;;;;;;;18.60;99.90;;;;;;5070414;28;20408;-82
2022/09/20 10:55:38;;;;;;;;;;;18.60;99.90;;;;;;5062720;28;19927;-82
2022/09/20 10:58:19;;;;;;;;;;;18.60;99.90;;;;;;5073537;28;20002;-81
2022/09/20 11:00:49;;;;;;;;;;;18.60;99.90;;;;;;5081407;28;20271;-81
2022/09/20 11:03:23;;;;;;;;;;;18.50;99.90;;;;;;5089645;28;19982;-82
2022/09/20 11:05:59;;;;;;;;;;;18.50;99.90;;;;;;5070625;28;19928;-81
2022/09/20 11:08:28;;;;;;;;;;;18.60;99.90;;;;;;5076123;28;19927;-82
2022/09/20 11:10:58;;;;;;;;;;;18.70;99.90;;;;;;5067643;28;19928;-81
2022/09/20 11:13:27;;;;;;;;;;;18.70;99.90;;;;;;5069622;28;20031;-81
2022/09/20 11:15:58;;;;;;;;;;;18.60;99.90;;;;;;5072752;28;20257;-81
2022/09/20 11:18:29;;;;;;;;;;;18.80;99.90;;;;;;5071710;28;19932;-82
2022/09/20 11:21:01;;;;;;;;;;;19.00;99.90;;;;;;5075331;28;20497;-82
2022/09/20 11:23:33;;;;;;;;;;;19.40;99.90;;;;;;5089307;28;19965;-82
2022/09/20 11:26:04;;;;;;;;;;;19.50;99.90;;;;;;5078040;28;19971;-81
2022/09/20 11:28:33;;;;;;;;;;;20.00;99.90;;;;;;5080177;28;19927;-82
2022/09/20 11:31:02;;;;;;;;;;;20.50;99.90;;;;;;5076948;28;19978;-82
2022/09/20 11:33:31;;;;;;;;;;;20.60;99.90;;;;;;5068091;28;19989;-82
2022/09/20 11:36:03;;;;;;;;;;;20.50;99.90;;;;;;5073032;28;19995;-82
2022/09/20 11:38:35;;;;;;;;;;;20.20;99.90;;;;;;5064460;28;20452;-82
2022/09/20 11:41:04;;;;;;;;;;;19.80;99.90;;;;;;5078975;28;20306;-82
2022/09/20 11:43:31;;;;;;;;;;;19.50;99.90;;;;;;5086452;28;19939;-81
2022/09/20 11:46:00;;;;;;;;;;;19.30;99.90;;;;;;5072429;28;19924;-81
2022/09/20 11:48:29;;;;;;;;;;;19.20;99.90;;;;;;5092778;28;19943;-81
2022/09/20 11:51:20;;;;;;;;;;;19.10;99.90;;;;;;5070711;28;20049;-80
2022/09/20 11:53:53;;;;;;;;;;;19.20;99.90;;;;;;4976025;28;20039;-80
2022/09/20 11:56:21;;;;;;;;;;;19.40;99.90;;;;;;5069630;28;19954;-80
2022/09/20 11:58:50;;;;;;;;;;;19.60;99.90;;;;;;5070597;28;19931;-80
2022/09/20 12:01:24;;;;;;;;;;;20.00;99.90;;;;;;5070354;28;19928;-80
2022/09/20 12:03:53;;;;;;;;;;;20.40;99.90;;;;;;5069794;28;19961;-80
2022/09/20 12:06:24;;;;;;;;;;;20.70;99.90;;;;;;5089146;28;19940;-80
2022/09/20 12:08:53;;;;;;;;;;;20.90;99.90;;;;;;5089810;28;19957;-80
2022/09/20 12:11:28;;;;;;;;;;;21.20;99.90;;;;;;5066665;28;19955;-80
2022/09/20 12:13:58;;;;;;;;;;;21.30;99.90;;;;;;5068264;28;20371;-80
2022/09/20 12:16:35;;;;;;;;;;;21.30;99.90;;;;;;5088742;28;20037;-81
2022/09/20 12:19:04;;;;;;;;;;;21.40;99.90;;;;;;5069693;28;19939;-80
2022/09/20 12:21:31;;;;;;;;;;;21.40;99.90;;;;;;5070273;28;19950;-80
2022/09/20 12:24:12;;;;;;;;;;;21.30;99.90;;;;;;5064555;28;19936;-80
2022/09/20 12:26:46;;;;;;;;;;;21.10;99.90;;;;;;5061091;28;19935;-80
2022/09/20 12:29:35;;;;;;;;;;;21.80;99.90;;;;;;5064943;28;19935;-83
2022/09/20 12:32:24;;;;;;;;;;;21.20;99.90;;;;;;5083117;28;20042;-84
2022/09/20 12:34:51;;;;;;;;;;;21.30;99.90;;;;;;5066379;28;19932;-83
2022/09/20 12:37:22;;;;;;;;;;;21.40;99.90;;;;;;5069387;28;20315;-80
2022/09/20 12:39:53;;;;;;;;;;;21.30;99.90;;;;;;5066519;28;19939;-82
2022/09/20 12:42:28;;;;;;;;;;;21.40;99.90;;;;;;5067669;28;19981;-83
2022/09/20 12:45:00;;;;;;;;;;;21.50;99.90;;;;;;5065108;28;19924;-84
2022/09/20 12:47:28;;;;;;;;;;;21.50;99.90;;;;;;5083608;28;19960;-82
2022/09/20 12:52:59;;;;;;;;;;;21.30;99.90;;;;;;5069102;28;19939;-83
2022/09/20 12:55:28;;;;;;;;;;;21.30;99.90;;;;;;5071827;28;19981;-81
2022/09/20 12:58:00;;;;;;;;;;;21.30;99.90;;;;;;5071859;28;19928;-81
2022/09/20 13:00:37;;;;;;;;;;;21.30;99.90;;;;;;5073389;28;19973;-81
2022/09/20 13:03:12;;;;;;;;;;;21.30;99.90;;;;;;5073619;28;19928;-81
2022/09/20 13:05:39;;;;;;;;;;;21.30;99.90;;;;;;5088540;28;20087;-80
2022/09/20 13:08:13;;;;;;;;;;;21.30;99.90;;;;;;5081437;28;19928;-81
2022/09/20 13:10:42;;;;;;;;;;;21.30;99.90;;;;;;5093284;28;19924;-81
2022/09/20 13:13:23;;;;;;;;;;;21.30;99.90;;;;;;5072535;28;19925;-81
2022/09/20 13:15:52;;;;;;;;;;;21.30;99.90;;;;;;5092763;28;21340;-81
2022/09/20 13:18:19;;;;;;;;;;;21.00;99.90;;;;;;5076037;28;20244;-81
2022/09/20 13:20:47;;;;;;;;;;;21.00;99.90;;;;;;5072810;28;19930;-81
2022/09/20 13:23:19;;;;;;;;;;;20.70;99.90;;;;;;5069583;28;19943;-79
2022/09/20 13:25:47;;;;;;;;;;;20.50;99.90;;;;;;5090045;28;20015;-82
2022/09/20 13:28:19;;;;;;;;;;;20.30;99.90;;;;;;5069862;28;19939;-80
2022/09/20 13:30:47;;;;;;;;;;;20.30;99.90;;;;;;5070189;28;19963;-80
2022/09/20 13:33:16;;;;;;;;;;;20.50;99.90;;;;;;5067923;28;19932;-82
2022/09/20 13:35:45;;;;;;;;;;;20.60;99.90;;;;;;5071422;28;20653;-81
2022/09/20 13:38:19;;;;;;;;;;;20.60;99.90;;;;;;5072040;28;19942;-82
2022/09/20 13:40:46;;;;;;;;;;;20.60;99.90;;;;;;5071896;28;20001;-83
2022/09/20 13:43:20;;;;;;;;;;;20.60;99.90;;;;;;5069590;28;19932;-82
2022/09/20 13:45:52;;;;;;;;;;;20.60;99.90;;;;;;5070390;28;19932;-82
2022/09/20 13:48:19;;;;;;;;;;;20.50;99.90;;;;;;5075707;28;19995;-80
2022/09/20 13:50:46;;;;;;;;;;;20.50;99.90;;;;;;5078418;28;19932;-80
2022/09/20 13:53:15;;;;;;;;;;;20.60;99.90;;;;;;5070970;28;19997;-80
2022/09/20 13:55:42;;;;;;;;;;;20.70;99.90;;;;;;5071796;28;20027;-80
2022/09/20 13:58:16;;;;;;;;;;;21.00;99.90;;;;;;5072069;28;19990;-80
2022/09/20 14:00:46;;;;;;;;;;;21.40;99.90;;;;;;5073608;28;20475;-80
2022/09/20 14:03:16;;;;;;;;;;;21.80;99.90;;;;;;5074456;28;20007;-80
2022/09/20 14:05:45;;;;;;;;;;;22.00;99.90;;;;;;5094798;28;19985;-80
2022/09/20 14:08:13;;;;;;;;;;;22.10;99.90;;;;;;5076943;28;20402;-80
2022/09/20 14:10:42;;;;;;;;;;;21.60;99.90;;;;;;5077869;28;19928;-79
2022/09/20 14:13:13;;;;;;;;;;;21.60;99.90;;;;;;5077807;28;19924;-79
2022/09/20 14:15:42;;;;;;;;;;;21.20;99.90;;;;;;5078066;28;20019;-79
2022/09/20 14:18:13;;;;;;;;;;;20.70;99.90;;;;;;5077231;28;19928;-79
2022/09/20 14:20:43;;;;;;;;;;;20.60;99.90;;;;;;5077669;28;19928;-79
2022/09/20 14:23:21;;;;;;;;;;;20.50;99.90;;;;;;5077966;28;20557;-79
2022/09/20 14:26:03;;;;;;;;;;;20.40;99.90;;;;;;5077671;28;19971;-79
2022/09/20 14:28:30;;;;;;;;;;;20.30;99.90;;;;;;5078099;28;19936;-79
2022/09/20 14:31:06;;;;;;;;;;;21.30;99.90;;;;;;5098233;28;19931;-79
2022/09/20 14:33:33;;;;;;;;;;;19.90;99.90;;;;;;5079213;28;20062;-79
2022/09/20 14:36:01;;;;;;;;;;;19.60;99.90;;;;;;5080936;28;19928;-78
2022/09/20 14:38:29;;;;;;;;;;;19.40;99.90;;;;;;5079635;28;19932;-80
2022/09/20 14:40:55;;;;;;;;;;;19.20;99.90;;;;;;5079307;28;20591;-79
2022/09/20 14:43:30;;;;;;;;;;;19.10;99.90;;;;;;5061142;28;19932;-80
2022/09/20 14:45:59;;;;;;;;;;;18.90;99.90;;;;;;5072553;28;19924;-79
2022/09/20 14:48:33;;;;;;;;;;;18.80;99.90;;;;;;5072637;28;20483;-80
2022/09/20 14:51:20;;;;;;;;;;;18.60;99.90;;;;;;5093800;28;19964;-79
2022/09/20 14:53:50;;;;;;;;;;;18.50;99.90;;;;;;5096032;28;20367;-79
2022/09/20 14:56:25;;;;;;;;;;;18.30;99.90;;;;;;5076214;28;19932;-79
2022/09/20 14:59:05;;;;;;;;;;;18.20;99.90;;;;;;5095131;28;20042;-79
2022/09/20 15:01:33;;;;;;;;;;;18.20;99.90;;;;;;5073155;28;20004;-80
2022/09/20 15:04:06;;;;;;;;;;;18.30;99.90;;;;;;5073082;28;20015;-80